Terminal Aerodrome Forecast
Issued by NWS King Salmon, AK

Home | Current Version | Previous Version | Text Only | Print | Product List | Glossary On
Versions: 1 2 3 4 5 6 7 8 9 10 11 12 13 14 15 16 17 18 19
000
FTAK31 PANC 231723
TAFAKN
TAF
PAKN 231723Z 2318/2418 36006KT 6SM -RA BR SCT006 OVC022
      TEMPO 2318/2322 5SM -RA BR BKN006
     FM240600 22008KT 6SM -RA BR SCT005 OVC015=

USA.gov is the U.S. government's official web portal to all federal, state and local government web resources and services.